< < Back
Terminal Aerodrome Forecast


Current Version              Previous Versions:   1  2  3  4  5  6  7  8  9  

Terminal Aerodrome Forecast

544
FTUS42 KFFC 301500 AAA
TAFPDK
TAF AMD
KPDK 301552Z 3016/3112 06004KT P6SM FEW030
     FM301800 03005KT P6SM SCT030 SCT250
     FM310300 03005KT P6SM FEW250
     FM310900 00000KT P6SM BKN150=

Latest METAR

362
SAUS70 KWBC 301900 RRN
MTRPDK
METAR KPDK 301853Z VRB04KT 10SM BKN060 27/13 A3005 RMK AO2 SLP163
T02720128


USA.gov is the U.S. government's official web portal to all federal, state and local government web resources and services.